Airfield :
LOGIN :

Register | Disclaimer

   EN    FR    IT 

 










Legend :    VFR   Marginal VFR   IFR   Intensive IFR   Very Intensive IFR
Visi :
Ceiling :
>= 8 km
>= 3000ft
5 to 8 km
1000 to 3000 ft
1500m to 5 km
500 to 1000 ft
800 to 1500m
200 to 500 ft
< 800m
< 200 ft
Symbols :   Thunderstorms  Fog  Heavy snow  Heavy precipitations  Wind > 20 kt
SIGMETs :     Misc.  Thunderstorms  Icing  Turbulence  Mountain Waves  Volcanic Ashes







- Airport Elevation : 788 ft
- IATA code : DCM
- Download approach charts


LFCK - Castres-Mazamet

CURRENT METAR :
  • 301630Z AUTO 30024G38KT 4000 1800 RA BR FEW009/// BKN013/// BKN018/// ///CB 09/08 Q1010 TEMPO BKN008 SCT030TCU BECMG 30015KT

EXPIRED METARs :
  • 301600Z AUTO 29023G33KT 260V320 4600 +RA BR VCTS FEW009/// BKN015/// BKN020/// ///CB 11/09 Q1007 TEMPO 2000 TSRA BKN008 SCT030TCU BECMG 30015KT
  • 301530Z AUTO 12023KT 080V160 9999 ///CB 18/10 Q1002 TEMPO 4000 RA BKN008 SCT030TCU BECMG 30015KT
  • 301500Z AUTO 12023G34KT 080V140 CAVOK 20/10 Q1002 TEMPO 29025G45KT 2000 TSRA BKN012 SCT030CB
  • 301430Z AUTO 11025KT 080V140 CAVOK 20/10 Q1002 TEMPO 29025G45KT 2000 TSRA BKN012 SCT030CB
  • 301400Z AUTO 11026KT 080V140 CAVOK 20/11 Q1003 TEMPO 29025G45KT 2000 TSRA BKN012 SCT030CB

TAF TAF LFCK
Valid from the 30 at 15:00 until the 01 at 00:00 UTC


301400Z 3015/3024 12025G38KT CAVOK
BECMG 3015/3016 30015KT SCT030 FEW040CB
TEMPO 3015/3021 4000 RA BKN008 SCT030TCU
PROB40
TEMPO 3015/3017 29025G45KT 2000 TSRA BKN012 SCT030CB
PROB30
TEMPO 3015/3017 TSGR
BECMG 3019/3021 VRB02KT BKN020
No reported NOTAMs for that airfield.
3 SIGMETs reported for the Bordeaux FIR (LFBB) :
 
Embedded thunderstorms
LFBB SIGMET 15 VALID 301700/301900 LFPW
LFBB BORDEAUX FIR/UIR EMBD TS OBS WI N4545 E00300 - N4300 E00230 - N4300 E00215 - N4545 E00245 TOP FL300 MOV E 20KT NC=
Severe turbulence
LFBB SIGMET 14 VALID 301600/302000 LFPW
LFBB BORDEAUX FIR/UIR SEV TURB FCST WI N4630 E00300 - N4215 E00230 - N4230 E00145 - N4600 E00100 SFC/FL070 STNR WKN=
Squall lined thunderstorms
LFBB SIGMET 13 VALID 301500/301700 LFPW
LFBB BORDEAUX FIR/UIR SQL TS OBS WI N4715 E00200 - N4645 E00230 - N4300 E00200 - N4300 E00115 TOP FL300 MOV E 15KT NC=



MET'MAP, your aeronautical weather chart ! - Copyright ORBIFLY December 2007 - Disclaimer

ORBIFLY MET'MAP TEAM :

Programming & Development : Alexandra Zaïnal
Concept & Development : Baudouin d'Aumeries
Co-Development & Prog : Marc-Olivier Méhu
Technical & hardware support : Manuel Goepfert

Contact : metmap@orbifly.com




SOURCES & CREDITS :

   NOAA